Time;durP1;ratioP1;P1;durP2;ratioP2;P2;SDS_P1;SDS_P2;PMS_P1;PMS_P2;Temp;Humidity;BMP_temperature;BMP_pressure;BME280_temperature;BME280_humidity;BME280_pressure;Samples;Min_cycle;Max_cycle;Signal;HPM_P1;HPM_P2
2022/01/14 00:00:43;;;;;;;133.05;52.55;;;5.30;99.90;;;;;;5133829;27;20043;-76
2022/01/14 00:03:10;;;;;;;139.10;51.53;;;5.30;99.90;;;;;;5134227;27;20400;-76
2022/01/14 00:05:36;;;;;;;144.73;52.40;;;5.30;99.90;;;;;;5134561;27;20091;-76
2022/01/14 00:08:02;;;;;;;137.32;50.65;;;5.30;99.90;;;;;;5133814;27;20051;-75
2022/01/14 00:10:30;;;;;;;135.35;50.95;;;5.30;99.90;;;;;;5134420;27;20035;-76
2022/01/14 00:13:05;;;;;;;136.35;51.45;;;5.30;99.90;;;;;;5134067;27;20180;-75
2022/01/14 00:15:34;;;;;;;149.75;53.13;;;5.40;99.90;;;;;;5132667;27;20058;-76
2022/01/14 00:18:01;;;;;;;138.10;51.63;;;5.40;99.90;;;;;;5132975;27;20114;-75
2022/01/14 00:20:28;;;;;;;153.50;54.33;;;5.40;99.90;;;;;;5134315;27;20049;-76
2022/01/14 00:22:54;;;;;;;153.25;53.05;;;5.40;99.90;;;;;;5134199;27;20047;-71
2022/01/14 00:33:32;;;;;;;144.82;52.67;;;5.40;99.90;;;;;;5113729;28;20484;-76
2022/01/14 00:35:58;;;;;;;142.88;53.15;;;5.40;99.90;;;;;;5117613;27;20042;-71
2022/01/14 00:38:24;;;;;;;139.25;51.78;;;5.40;99.90;;;;;;5134290;27;20054;-76
2022/01/14 00:40:49;;;;;;;141.20;51.63;;;5.40;99.90;;;;;;5134118;27;20051;-76
2022/01/14 00:43:15;;;;;;;149.88;53.10;;;5.40;99.90;;;;;;5133411;27;20168;-76
2022/01/14 00:45:42;;;;;;;156.68;52.42;;;5.40;99.90;;;;;;5133938;27;20043;-75
2022/01/14 00:48:08;;;;;;;154.10;54.58;;;5.40;99.90;;;;;;5133012;27;20495;-76
2022/01/14 00:50:34;;;;;;;152.80;54.30;;;5.40;99.90;;;;;;5133847;27;20050;-75
2022/01/14 00:53:00;;;;;;;161.40;54.28;;;5.40;99.90;;;;;;5132794;27;20054;-72
2022/01/14 00:55:29;;;;;;;156.50;53.80;;;5.40;99.90;;;;;;5132014;27;20048;-75
2022/01/14 01:00:27;;;;;;;155.45;56.55;;;5.50;99.90;;;;;;5133266;27;20054;-75
2022/01/14 01:02:53;;;;;;;150.30;56.55;;;5.50;99.90;;;;;;5133984;27;20095;-76
2022/01/14 01:05:19;;;;;;;146.27;54.17;;;5.50;99.90;;;;;;5132845;27;20039;-74
2022/01/14 01:07:55;;;;;;;147.43;55.42;;;5.50;99.90;;;;;;5132954;27;20078;-76
2022/01/14 01:10:23;;;;;;;143.82;54.42;;;5.50;99.90;;;;;;5132181;27;20054;-75
2022/01/14 01:12:56;;;;;;;147.93;54.88;;;5.50;99.90;;;;;;5133153;27;20075;-75
2022/01/14 01:15:22;;;;;;;138.18;52.95;;;5.50;99.90;;;;;;5133135;27;20055;-75
2022/01/14 01:17:49;;;;;;;141.40;55.30;;;5.50;99.90;;;;;;5133089;27;20074;-76
2022/01/14 01:20:18;;;;;;;130.80;53.00;;;5.50;99.90;;;;;;5133452;27;20049;-75
2022/01/14 01:22:48;;;;;;;128.57;52.92;;;5.50;99.90;;;;;;5133214;27;20039;-76
2022/01/14 01:25:16;;;;;;;128.95;53.75;;;5.50;99.90;;;;;;5132182;27;20057;-76
2022/01/14 01:27:43;;;;;;;120.78;51.33;;;5.50;99.90;;;;;;5132748;27;20507;-75
2022/01/14 01:30:26;;;;;;;118.88;51.55;;;5.50;99.90;;;;;;5132676;27;20483;-75
2022/01/14 01:32:53;;;;;;;134.00;53.08;;;5.60;99.90;;;;;;5132777;27;20043;-76
2022/01/14 01:35:19;;;;;;;128.15;52.88;;;5.60;99.90;;;;;;5132892;27;20046;-76
2022/01/14 01:37:45;;;;;;;122.40;51.90;;;5.60;99.90;;;;;;5133280;27;20071;-76
2022/01/14 01:40:12;;;;;;;129.77;51.15;;;5.60;99.90;;;;;;5132723;27;20089;-75
2022/01/14 01:42:41;;;;;;;128.30;53.03;;;5.60;99.90;;;;;;5132757;27;20453;-76
2022/01/14 01:45:10;;;;;;;126.45;53.20;;;5.60;99.90;;;;;;5132490;27;20122;-72
2022/01/14 01:47:39;;;;;;;130.82;53.38;;;5.60;99.90;;;;;;5132664;27;20434;-76
2022/01/14 01:50:10;;;;;;;126.57;53.25;;;5.60;99.90;;;;;;5133465;27;20043;-76
2022/01/14 01:52:36;;;;;;;125.20;52.42;;;5.60;99.90;;;;;;5133170;27;20039;-75
2022/01/14 01:55:02;;;;;;;124.93;51.95;;;5.60;99.90;;;;;;5165098;27;20080;-76
2022/01/14 01:57:28;;;;;;;127.20;54.40;;;5.60;99.90;;;;;;5132291;27;20118;-75
2022/01/14 01:59:53;;;;;;;128.55;53.80;;;5.60;99.90;;;;;;5133698;28;20126;-76
2022/01/14 02:02:19;;;;;;;124.15;50.67;;;5.60;99.90;;;;;;5132400;28;20461;-75
2022/01/14 02:04:45;;;;;;;117.75;51.53;;;5.60;99.90;;;;;;5132877;28;20480;-76
2022/01/14 02:07:11;;;;;;;120.88;50.55;;;5.60;99.90;;;;;;5132579;27;20039;-73
2022/01/14 02:09:36;;;;;;;119.25;51.08;;;5.60;99.90;;;;;;5133132;28;20464;-76
2022/01/14 02:12:08;;;;;;;118.90;52.13;;;5.70;99.90;;;;;;5131559;28;20047;-76
2022/01/14 02:19:30;;;;;;;115.40;50.10;;;5.70;99.90;;;;;;5132675;27;20051;-76
2022/01/14 02:22:12;;;;;;;124.82;51.75;;;5.70;99.90;;;;;;5133339;27;20047;-76
2022/01/14 02:27:08;;;;;;;119.63;51.10;;;5.70;99.90;;;;;;5136617;27;20051;-76
2022/01/14 02:29:35;;;;;;;125.15;51.60;;;5.70;99.90;;;;;;5136195;27;20217;-76
2022/01/14 02:32:01;;;;;;;119.63;49.58;;;5.70;99.90;;;;;;5136289;27;20492;-76
2022/01/14 02:34:27;;;;;;;120.28;49.25;;;5.70;99.90;;;;;;5136167;27;20046;-75
2022/01/14 02:36:53;;;;;;;115.88;50.45;;;5.70;99.90;;;;;;5135694;27;20126;-76
2022/01/14 02:39:20;;;;;;;116.03;49.10;;;5.70;99.90;;;;;;5135992;27;20134;-75
2022/01/14 02:41:49;;;;;;;115.35;49.63;;;5.70;99.90;;;;;;5136526;27;20447;-76
2022/01/14 02:44:23;;;;;;;109.57;49.13;;;5.70;99.90;;;;;;5136088;27;20043;-72
2022/01/14 02:46:53;;;;;;;117.10;49.38;;;5.80;99.90;;;;;;5134878;27;20043;-76
2022/01/14 02:49:21;;;;;;;117.97;48.45;;;5.70;99.90;;;;;;5136143;27;20047;-75
2022/01/14 02:51:46;;;;;;;111.95;49.33;;;5.70;99.90;;;;;;5136100;27;20047;-76
2022/01/14 02:54:16;;;;;;;110.07;47.20;;;5.70;99.90;;;;;;5136181;27;20040;-76
2022/01/14 02:56:43;;;;;;;115.57;48.45;;;5.80;99.90;;;;;;5135192;27;20043;-76
2022/01/14 02:59:10;;;;;;;115.95;48.95;;;5.70;99.90;;;;;;5136328;27;20476;-76
2022/01/14 03:01:37;;;;;;;114.78;47.50;;;5.80;99.90;;;;;;5135188;27;20031;-76
2022/01/14 03:04:04;;;;;;;116.40;48.60;;;5.80;99.90;;;;;;5135798;27;20044;-76
2022/01/14 03:06:30;;;;;;;116.75;49.30;;;5.80;99.90;;;;;;5135215;27;20050;-75
2022/01/14 03:09:00;;;;;;;118.93;49.75;;;5.80;99.90;;;;;;5135901;27;20039;-76
2022/01/14 03:11:25;;;;;;;118.70;49.33;;;5.80;99.90;;;;;;5135231;27;20043;-75
2022/01/14 03:13:51;;;;;;;122.18;49.33;;;5.80;99.90;;;;;;5135986;27;20050;-76
2022/01/14 03:16:21;;;;;;;117.65;47.80;;;5.80;99.90;;;;;;5135439;27;20084;-75
2022/01/14 03:18:50;;;;;;;121.38;49.17;;;5.80;99.90;;;;;;5135539;27;20054;-76
2022/01/14 03:21:25;;;;;;;116.00;49.58;;;5.80;99.90;;;;;;5135469;27;20039;-76
2022/01/14 03:24:02;;;;;;;120.72;48.28;;;5.80;99.90;;;;;;5135987;27;20050;-76
2022/01/14 03:26:28;;;;;;;116.45;47.28;;;5.80;99.90;;;;;;5135170;27;20051;-76
2022/01/14 03:28:54;;;;;;;115.82;47.45;;;5.80;99.90;;;;;;5134715;27;20050;-76
2022/01/14 03:31:20;;;;;;;113.15;47.80;;;5.80;99.90;;;;;;5135508;27;20047;-76
2022/01/14 03:33:46;;;;;;;115.28;49.63;;;5.80;99.90;;;;;;5134686;27;20039;-76
2022/01/14 03:36:12;;;;;;;113.57;48.72;;;5.80;99.90;;;;;;5135939;27;20472;-76
2022/01/14 03:38:37;;;;;;;116.35;49.47;;;5.80;99.90;;;;;;5134495;27;20039;-75
2022/01/14 03:41:04;;;;;;;117.55;48.67;;;5.80;99.90;;;;;;5134933;27;20047;-76
2022/01/14 03:43:31;;;;;;;117.30;48.67;;;5.80;99.90;;;;;;5134765;27;20039;-75
2022/01/14 03:45:57;;;;;;;118.43;50.85;;;5.80;99.90;;;;;;5135001;27;20043;-75
2022/01/14 03:48:23;;;;;;;114.93;48.28;;;5.80;99.90;;;;;;5134723;27;20046;-72
2022/01/14 03:50:49;;;;;;;112.60;48.67;;;5.80;99.90;;;;;;5134523;27;20051;-74
2022/01/14 03:53:15;;;;;;;112.20;47.42;;;5.80;99.90;;;;;;5134733;27;20035;-76
2022/01/14 03:55:43;;;;;;;106.60;46.63;;;5.80;99.90;;;;;;5133399;27;20047;-75
2022/01/14 03:58:09;;;;;;;109.03;47.15;;;5.80;99.90;;;;;;5135110;27;20047;-76
2022/01/14 04:00:36;;;;;;;103.00;44.67;;;5.80;99.90;;;;;;5133702;27;20263;-75
2022/01/14 04:03:03;;;;;;;105.05;46.80;;;5.80;99.90;;;;;;5134820;27;20062;-76
2022/01/14 04:05:29;;;;;;;104.10;46.17;;;5.80;99.90;;;;;;5134024;27;20118;-74
2022/01/14 04:07:55;;;;;;;104.00;45.42;;;5.80;99.90;;;;;;5134755;27;20172;-76
2022/01/14 04:10:21;;;;;;;102.65;46.30;;;5.80;99.90;;;;;;5134990;27;20082;-76
2022/01/14 04:12:54;;;;;;;98.85;45.50;;;5.80;99.90;;;;;;5133645;27;20039;-76
2022/01/14 04:15:53;;;;;;;105.47;44.38;;;5.90;99.90;;;;;;5134928;27;20043;-76
2022/01/14 04:18:18;;;;;;;100.40;44.72;;;5.90;99.90;;;;;;5118904;27;20055;-76
2022/01/14 04:20:47;;;;;;;94.32;43.97;;;5.90;99.90;;;;;;5134031;27;20184;-76
2022/01/14 04:23:14;;;;;;;96.68;43.30;;;5.80;99.90;;;;;;5133788;27;20488;-76
2022/01/14 04:25:41;;;;;;;98.10;45.33;;;5.90;99.90;;;;;;5134127;27;20046;-75
2022/01/14 04:28:09;;;;;;;95.70;45.45;;;5.90;99.90;;;;;;5134164;27;20039;-76
2022/01/14 04:30:34;;;;;;;97.35;45.75;;;5.90;99.90;;;;;;5133973;27;20043;-75
2022/01/14 04:33:02;;;;;;;98.43;45.58;;;5.90;99.90;;;;;;5133504;27;20122;-75
2022/01/14 04:35:28;;;;;;;91.18;43.65;;;5.90;99.90;;;;;;5134489;27;20387;-76
2022/01/14 04:37:54;;;;;;;92.28;44.58;;;5.90;99.90;;;;;;5133649;27;20057;-76
2022/01/14 04:40:20;;;;;;;91.38;43.50;;;5.90;99.90;;;;;;5134325;27;20550;-76
2022/01/14 04:42:46;;;;;;;96.70;45.13;;;5.90;99.90;;;;;;5132840;27;20047;-76
2022/01/14 04:45:25;;;;;;;93.82;43.17;;;5.90;99.90;;;;;;5133857;27;20046;-74
2022/01/14 04:47:51;;;;;;;90.20;45.28;;;5.90;99.90;;;;;;5119183;27;20113;-75
2022/01/14 04:50:18;;;;;;;88.28;44.97;;;5.90;99.90;;;;;;5133328;27;20479;-76
2022/01/14 04:52:46;;;;;;;97.57;45.80;;;5.90;99.90;;;;;;5133296;27;20039;-76
2022/01/14 04:55:14;;;;;;;94.18;45.67;;;5.90;99.90;;;;;;5133564;27;20122;-76
2022/01/14 04:57:40;;;;;;;96.25;45.08;;;5.90;99.90;;;;;;5132976;27;20039;-76
2022/01/14 05:00:09;;;;;;;101.80;46.20;;;5.90;99.90;;;;;;5133892;27;20091;-76
2022/01/14 05:02:36;;;;;;;96.45;45.13;;;5.90;99.90;;;;;;5133638;27;20047;-72
2022/01/14 05:05:07;;;;;;;104.80;45.45;;;5.90;99.90;;;;;;5133478;27;20079;-76
2022/01/14 05:07:33;;;;;;;97.88;46.45;;;5.90;99.90;;;;;;5133581;27;20046;-71
2022/01/14 05:10:17;;;;;;;93.78;45.30;;;5.80;99.90;;;;;;5131307;27;20091;-78
2022/01/14 05:12:43;;;;;;;100.38;44.60;;;5.90;99.90;;;;;;5133051;27;20050;-77
2022/01/14 05:15:11;;;;;;;98.28;45.78;;;5.80;99.90;;;;;;5133393;27;20043;-75
2022/01/14 05:17:36;;;;;;;94.32;44.50;;;5.80;99.90;;;;;;5133359;27;20048;-72
2022/01/14 05:20:04;;;;;;;96.40;43.00;;;5.90;99.90;;;;;;5133412;27;20050;-77
2022/01/14 05:22:30;;;;;;;96.85;43.17;;;5.80;99.90;;;;;;5133380;27;20515;-77
2022/01/14 05:24:56;;;;;;;90.97;42.67;;;5.80;99.90;;;;;;5132584;27;20035;-76
2022/01/14 05:27:21;;;;;;;98.95;43.55;;;5.80;99.90;;;;;;5133384;27;20047;-76
2022/01/14 05:29:48;;;;;;;95.90;43.00;;;5.80;99.90;;;;;;5133076;27;20177;-76
2022/01/14 05:32:15;;;;;;;99.63;43.47;;;5.80;99.90;;;;;;5133356;27;20039;-76
2022/01/14 05:34:42;;;;;;;93.82;40.72;;;5.80;99.90;;;;;;5132949;27;20047;-72
2022/01/14 05:37:09;;;;;;;86.55;42.20;;;5.80;99.90;;;;;;5133518;27;20510;-76
2022/01/14 05:39:35;;;;;;;94.45;41.38;;;5.80;99.90;;;;;;5133421;27;20095;-77
2022/01/14 05:42:02;;;;;;;89.35;40.47;;;5.80;99.90;;;;;;5132640;27;20162;-76
2022/01/14 05:44:29;;;;;;;95.13;42.20;;;5.80;99.90;;;;;;5133570;27;20395;-77
2022/01/14 05:46:56;;;;;;;91.30;40.95;;;5.70;99.90;;;;;;5132555;27;20071;-77
2022/01/14 05:49:22;;;;;;;90.03;43.25;;;5.80;99.90;;;;;;5133376;27;20499;-77
2022/01/14 05:51:49;;;;;;;90.35;40.83;;;5.80;99.90;;;;;;5132406;28;20050;-77
2022/01/14 05:54:16;;;;;;;84.03;40.90;;;5.80;99.90;;;;;;5133346;27;20039;-77
2022/01/14 05:56:42;;;;;;;90.25;40.92;;;5.80;99.90;;;;;;5132936;27;20043;-73
2022/01/14 05:59:08;;;;;;;84.15;40.30;;;5.80;99.90;;;;;;5137215;27;20050;-77
2022/01/14 06:01:34;;;;;;;89.10;40.08;;;5.80;99.90;;;;;;5137222;27;20096;-78
2022/01/14 06:04:04;;;;;;;88.97;40.08;;;5.80;99.90;;;;;;5136864;27;20197;-77
2022/01/14 06:06:31;;;;;;;80.50;40.35;;;5.80;99.90;;;;;;5137476;27;20476;-77
2022/01/14 06:08:57;;;;;;;77.28;39.35;;;5.70;99.90;;;;;;5136600;27;20043;-77
2022/01/14 06:11:23;;;;;;;74.10;40.47;;;5.70;99.90;;;;;;5137296;27;20126;-77
2022/01/14 06:13:49;;;;;;;77.87;41.27;;;5.80;99.90;;;;;;5136687;27;20041;-77
2022/01/14 06:16:15;;;;;;;81.32;40.20;;;5.70;99.90;;;;;;5137006;27;20121;-77
2022/01/14 06:18:42;;;;;;;80.68;40.45;;;5.70;99.90;;;;;;5136690;27;20543;-78
2022/01/14 06:21:08;;;;;;;83.75;40.05;;;5.70;99.90;;;;;;5136574;27;20043;-78
2022/01/14 06:23:33;;;;;;;79.68;39.28;;;5.70;99.90;;;;;;5137122;27;20179;-78
2022/01/14 06:25:59;;;;;;;79.85;40.50;;;5.80;99.90;;;;;;5136512;27;20046;-78
2022/01/14 06:28:25;;;;;;;77.32;39.58;;;5.70;99.90;;;;;;5137032;27;20046;-78
2022/01/14 06:30:51;;;;;;;74.15;39.70;;;5.70;99.90;;;;;;5136151;27;20122;-78
2022/01/14 06:33:17;;;;;;;78.22;40.80;;;5.70;99.90;;;;;;5136930;27;20180;-78
2022/01/14 06:35:42;;;;;;;71.68;38.17;;;5.70;99.90;;;;;;5136901;27;20380;-78
2022/01/14 06:38:09;;;;;;;76.82;38.47;;;5.70;99.90;;;;;;5136209;27;20046;-78
2022/01/14 06:40:35;;;;;;;68.90;36.83;;;5.80;99.90;;;;;;5135479;27;20055;-78
2022/01/14 06:43:01;;;;;;;70.18;39.08;;;5.70;99.90;;;;;;5136105;27;20079;-78
2022/01/14 06:45:27;;;;;;;67.22;37.83;;;5.80;99.90;;;;;;5136411;27;20078;-77
2022/01/14 06:47:53;;;;;;;69.47;37.13;;;5.80;99.90;;;;;;5136038;27;20492;-78
2022/01/14 06:50:20;;;;;;;62.05;36.45;;;5.80;99.90;;;;;;5136174;27;20492;-78
2022/01/14 06:52:45;;;;;;;67.93;37.42;;;5.80;99.90;;;;;;5135591;27;20134;-78
2022/01/14 06:55:12;;;;;;;66.47;37.45;;;5.80;99.90;;;;;;5135837;27;20590;-78
2022/01/14 06:57:37;;;;;;;64.20;35.45;;;5.80;99.90;;;;;;5136608;27;20134;-78
2022/01/14 07:00:11;;;;;;;72.25;37.38;;;5.80;99.90;;;;;;5135835;27;20130;-78
2022/01/14 07:02:37;;;;;;;65.63;36.45;;;5.80;99.90;;;;;;5135768;27;20135;-78
2022/01/14 07:05:04;;;;;;;69.90;36.22;;;5.80;99.90;;;;;;5135757;27;20071;-78
2022/01/14 07:07:29;;;;;;;63.08;37.38;;;5.80;99.90;;;;;;5136135;27;20404;-78
2022/01/14 07:09:56;;;;;;;73.50;37.45;;;5.80;99.90;;;;;;5134881;27;20043;-78
2022/01/14 07:12:36;;;;;;;66.30;36.40;;;5.80;99.90;;;;;;5135741;27;20050;-78
2022/01/14 07:15:03;;;;;;;;;;;5.80;99.90;;;;;;5135631;27;20047;-78
2022/01/14 07:17:29;;;;;;;67.03;36.38;;;5.80;99.90;;;;;;5136012;27;19923;-78
2022/01/14 07:19:58;;;;;;;63.80;36.97;;;5.80;99.90;;;;;;5135278;27;20099;-77
2022/01/14 07:22:24;;;;;;;68.93;37.65;;;5.80;99.90;;;;;;5135932;27;20047;-78
2022/01/14 07:24:49;;;;;;;66.65;37.33;;;5.80;99.90;;;;;;5134933;27;20392;-78
2022/01/14 07:27:16;;;;;;;69.43;37.65;;;5.80;99.90;;;;;;5133996;27;20047;-78
2022/01/14 07:29:42;;;;;;;71.60;38.50;;;5.80;99.90;;;;;;5134663;27;20079;-78
2022/01/14 07:32:08;;;;;;;66.78;38.65;;;5.80;99.90;;;;;;5135187;27;20122;-78
2022/01/14 07:34:34;;;;;;;67.70;38.75;;;5.80;99.90;;;;;;5135608;27;20172;-78
2022/01/14 07:37:00;;;;;;;69.38;37.97;;;5.80;99.90;;;;;;5135073;27;20122;-77
2022/01/14 07:39:26;;;;;;;63.25;37.53;;;5.80;99.90;;;;;;5135025;27;20134;-78
2022/01/14 07:41:53;;;;;;;67.75;38.45;;;5.80;99.90;;;;;;5135756;27;20055;-78
2022/01/14 07:44:19;;;;;;;69.13;38.83;;;5.80;99.90;;;;;;5134702;27;20043;-78
2022/01/14 07:46:47;;;;;;;69.32;38.78;;;5.80;99.90;;;;;;5134108;27;20035;-79
2022/01/14 07:49:13;;;;;;;67.75;38.28;;;5.80;99.90;;;;;;5133312;27;20047;-78
2022/01/14 07:51:39;;;;;;;72.78;40.03;;;5.80;99.90;;;;;;5134386;27;20054;-78
2022/01/14 07:54:05;;;;;;;65.90;39.03;;;5.80;99.90;;;;;;5133483;27;20433;-78
2022/01/14 07:56:33;;;;;;;64.78;38.50;;;5.80;99.90;;;;;;5135209;27;20047;-78
2022/01/14 07:58:59;;;;;;;70.47;39.97;;;5.80;99.90;;;;;;5134238;27;20438;-73
2022/01/14 08:01:26;;;;;;;62.55;38.75;;;5.80;99.90;;;;;;5134204;27;20483;-78
2022/01/14 08:03:52;;;;;;;61.65;37.45;;;5.80;99.90;;;;;;5135007;27;20047;-78
2022/01/14 08:06:18;;;;;;;61.83;37.53;;;5.80;99.90;;;;;;5134476;27;20760;-78
2022/01/14 08:08:44;;;;;;;60.15;37.78;;;5.80;99.90;;;;;;5135032;27;20500;-78
2022/01/14 08:11:10;;;;;;;59.88;37.10;;;5.80;99.90;;;;;;5133739;27;20062;-78
2022/01/14 08:13:35;;;;;;;57.88;36.67;;;5.80;99.90;;;;;;5134826;27;20047;-77
2022/01/14 08:16:01;;;;;;;59.97;37.90;;;5.80;99.90;;;;;;5133968;27;20488;-73
2022/01/14 08:18:28;;;;;;;56.20;36.97;;;5.80;99.90;;;;;;5134511;27;20084;-78
2022/01/14 08:20:54;;;;;;;58.60;35.85;;;5.80;99.90;;;;;;5133582;27;20542;-78
2022/01/14 08:23:19;;;;;;;57.45;35.85;;;5.90;99.90;;;;;;5133598;27;20122;-79
2022/01/14 08:25:46;;;;;;;53.40;34.15;;;5.90;99.90;;;;;;5134315;27;20095;-83
2022/01/14 08:28:11;;;;;;;55.50;36.28;;;5.80;99.90;;;;;;5126031;27;20043;-72
2022/01/14 08:30:37;;;;;;;52.72;35.03;;;5.90;99.90;;;;;;5128592;27;20751;-79
2022/01/14 08:33:03;;;;;;;54.80;35.80;;;5.90;99.90;;;;;;5129435;27;20070;-75
2022/01/14 08:35:29;;;;;;;55.22;37.33;;;5.90;99.90;;;;;;5131196;27;20039;-81
2022/01/14 08:37:55;;;;;;;49.10;34.17;;;5.90;99.90;;;;;;5131200;27;20499;-81
2022/01/14 08:40:21;;;;;;;45.03;34.00;;;5.90;99.90;;;;;;5130707;27;20066;-77
2022/01/14 08:42:52;;;;;;;49.22;34.10;;;6.00;99.90;;;;;;5130330;27;20055;-81
2022/01/14 08:45:21;;;;;;;44.92;33.25;;;6.00;99.90;;;;;;5131094;27;20077;-82
2022/01/14 08:47:51;;;;;;;42.75;31.98;;;6.00;99.90;;;;;;5129619;27;20589;-77
2022/01/14 08:50:27;;;;;;;43.13;32.10;;;6.00;99.90;;;;;;5130916;27;20043;-82
2022/01/14 08:52:52;;;;;;;46.83;32.38;;;6.10;99.90;;;;;;5131063;27;20049;-81
2022/01/14 08:55:20;;;;;;;45.47;31.95;;;6.10;99.90;;;;;;5130779;27;20125;-82
2022/01/14 08:57:46;;;;;;;42.67;31.40;;;6.10;99.90;;;;;;5130899;27;20531;-81
2022/01/14 09:00:14;;;;;;;42.42;32.03;;;6.10;99.90;;;;;;5130192;27;20043;-79
2022/01/14 09:02:39;;;;;;;43.28;32.05;;;6.10;99.90;;;;;;5131291;27;20099;-82
2022/01/14 09:05:06;;;;;;;41.30;31.25;;;6.10;99.90;;;;;;5131033;27;20039;-74
2022/01/14 09:07:32;;;;;;;43.10;29.63;;;6.20;99.90;;;;;;5130979;27;20051;-78
2022/01/14 09:09:58;;;;;;;40.80;31.23;;;6.20;99.90;;;;;;5131100;27;20100;-81
2022/01/14 09:12:24;;;;;;;40.75;31.20;;;6.20;99.90;;;;;;5129936;27;20450;-81
2022/01/14 09:14:49;;;;;;;40.50;29.77;;;6.20;99.90;;;;;;5130815;27;20364;-78
2022/01/14 09:17:17;;;;;;;41.45;30.88;;;6.20;99.90;;;;;;5129852;27;20050;-81
2022/01/14 09:19:43;;;;;;;41.38;30.13;;;6.20;99.90;;;;;;5130911;27;20054;-82
2022/01/14 09:22:09;;;;;;;39.92;31.20;;;6.30;99.90;;;;;;5130461;27;20047;-74
2022/01/14 09:24:35;;;;;;;40.53;29.38;;;6.30;99.90;;;;;;5129974;27;20039;-81
2022/01/14 09:27:01;;;;;;;41.97;31.30;;;6.30;99.90;;;;;;5131079;27;20039;-81
2022/01/14 09:29:27;;;;;;;40.17;31.75;;;6.30;99.90;;;;;;5130289;27;20047;-78
2022/01/14 09:31:53;;;;;;;42.58;30.55;;;6.30;99.90;;;;;;5129878;27;20050;-80
2022/01/14 09:34:18;;;;;;;36.92;30.10;;;6.40;99.90;;;;;;5129609;27;20472;-81
2022/01/14 09:36:45;;;;;;;41.17;29.45;;;6.40;99.90;;;;;;5130823;27;20039;-81
2022/01/14 09:39:12;;;;;;;42.47;30.40;;;6.40;99.90;;;;;;5129581;27;20077;-75
2022/01/14 09:41:38;;;;;;;39.97;29.35;;;6.40;99.90;;;;;;5130698;27;20140;-82
2022/01/14 09:44:05;;;;;;;39.15;29.65;;;6.50;99.90;;;;;;5130165;28;20074;-81
2022/01/14 09:46:31;;;;;;;37.00;28.98;;;6.50;99.90;;;;;;5126260;28;20615;-76
2022/01/14 09:48:57;;;;;;;37.53;29.73;;;6.50;99.90;;;;;;5129727;28;20148;-81
2022/01/14 09:51:24;;;;;;;38.17;29.38;;;6.50;99.90;;;;;;5125622;28;20043;-81
2022/01/14 09:53:50;;;;;;;41.03;29.67;;;6.60;99.90;;;;;;5125591;28;20061;-76
2022/01/14 09:56:22;;;;;;;38.53;28.05;;;6.60;99.90;;;;;;5128579;28;20043;-81
2022/01/14 09:58:51;;;;;;;35.95;26.90;;;6.60;99.90;;;;;;5129706;27;20043;-80
2022/01/14 10:01:19;;;;;;;35.17;27.17;;;6.60;99.90;;;;;;5135381;27;20471;-81
2022/01/14 10:03:55;;;;;;;40.13;27.55;;;6.60;99.90;;;;;;5128895;28;20039;-81
2022/01/14 10:06:57;;;;;;;31.55;25.42;;;6.70;99.90;;;;;;5128459;27;20100;-80
2022/01/14 10:09:43;;;;;;;35.47;27.02;;;6.70;99.90;;;;;;5099673;27;20047;-80
2022/01/14 10:12:17;;;;;;;35.05;25.25;;;6.70;99.90;;;;;;5130151;28;20604;-81
2022/01/14 10:15:00;;;;;;;35.20;26.23;;;6.80;99.90;;;;;;5129275;28;20027;-80
2022/01/14 10:17:38;;;;;;;31.48;24.70;;;6.80;99.90;;;;;;5129220;27;20099;-78
2022/01/14 10:20:08;;;;;;;33.33;25.00;;;6.80;99.90;;;;;;5127577;28;20043;-80
2022/01/14 10:22:35;;;;;;;31.08;24.58;;;6.90;99.90;;;;;;5128797;27;20039;-77
2022/01/14 10:25:06;;;;;;;31.25;24.67;;;6.90;99.90;;;;;;5129777;27;20464;-80
2022/01/14 10:27:41;;;;;;;34.20;25.25;;;7.00;99.90;;;;;;5129023;27;20043;-80
2022/01/14 10:30:08;;;;;;;30.75;24.05;;;6.90;99.90;;;;;;5129968;28;20051;-80
2022/01/14 10:32:36;;;;;;;29.05;24.63;;;7.00;99.90;;;;;;5127944;28;20379;-80
2022/01/14 10:35:07;;;;;;;31.58;23.63;;;7.00;99.90;;;;;;5133914;27;20576;-80
2022/01/14 10:37:35;;;;;;;30.50;23.60;;;7.10;99.90;;;;;;5131401;27;20101;-80
2022/01/14 10:40:04;;;;;;;27.63;23.23;;;7.10;99.90;;;;;;5133255;27;20049;-80
2022/01/14 10:42:34;;;;;;;30.20;23.17;;;7.10;99.90;;;;;;5131410;28;20682;-80
2022/01/14 10:45:18;;;;;;;29.00;22.27;;;7.20;99.90;;;;;;5134647;27;20046;-81
2022/01/14 10:48:05;;;;;;;31.23;22.02;;;7.20;99.90;;;;;;5136253;27;20039;-81
2022/01/14 10:50:38;;;;;;;27.52;21.52;;;7.20;99.90;;;;;;5134629;27;20075;-81
2022/01/14 10:53:12;;;;;;;26.75;21.38;;;7.20;99.90;;;;;;5136121;27;20092;-81
2022/01/14 10:55:47;;;;;;;26.80;20.60;;;7.20;99.90;;;;;;5135035;27;20800;-80
2022/01/14 10:58:17;;;;;;;24.73;20.48;;;7.30;99.90;;;;;;5135932;27;20039;-80
2022/01/14 11:00:48;;;;;;;27.85;20.13;;;7.30;99.90;;;;;;5139287;27;20042;-80
2022/01/14 11:03:15;;;;;;;26.90;21.23;;;7.30;99.90;;;;;;5136063;27;20051;-80
2022/01/14 11:05:42;;;;;;;23.77;19.05;;;7.30;99.90;;;;;;5135377;27;20202;-80
2022/01/14 11:08:08;;;;;;;23.70;18.05;;;7.40;99.90;;;;;;5136243;27;20053;-81
2022/01/14 11:10:37;;;;;;;27.40;19.67;;;7.40;99.90;;;;;;5135316;27;20492;-81
2022/01/14 11:13:07;;;;;;;26.02;18.17;;;7.40;99.90;;;;;;5136034;27;20125;-76
2022/01/14 11:15:34;;;;;;;22.98;17.25;;;7.50;99.90;;;;;;5135383;27;20082;-77
2022/01/14 11:18:03;;;;;;;23.10;17.55;;;7.50;99.90;;;;;;5135771;27;20047;-77
2022/01/14 11:20:33;;;;;;;21.20;17.20;;;7.50;99.90;;;;;;5135439;27;20054;-76
2022/01/14 11:23:15;;;;;;;25.02;17.52;;;7.50;99.90;;;;;;5136267;27;20087;-77
2022/01/14 11:26:19;;;;;;;24.70;18.10;;;7.50;99.90;;;;;;5135392;27;20081;-76
2022/01/14 11:28:46;;;;;;;23.25;18.25;;;7.50;99.90;;;;;;5071686;28;20041;-76
2022/01/14 11:31:25;;;;;;;21.30;17.65;;;7.50;99.90;;;;;;5107469;28;20064;-76
2022/01/14 11:33:50;;;;;;;21.38;16.42;;;7.50;99.90;;;;;;5115231;28;20069;-76
2022/01/14 11:36:16;;;;;;;21.23;15.85;;;7.50;99.90;;;;;;5114900;28;20548;-76
2022/01/14 11:38:46;;;;;;;23.17;17.63;;;7.50;99.90;;;;;;5131060;27;20122;-76
2022/01/14 11:41:18;;;;;;;23.88;17.08;;;7.50;99.90;;;;;;5135932;27;20051;-76
2022/01/14 11:43:49;;;;;;;21.30;16.25;;;7.50;99.90;;;;;;5135056;27;20228;-76
2022/01/14 11:46:35;;;;;;;23.58;17.92;;;7.50;99.90;;;;;;5135577;27;20497;-77
2022/01/14 11:49:03;;;;;;;22.88;17.10;;;7.50;99.90;;;;;;5124151;27;20058;-77
2022/01/14 11:51:28;;;;;;;24.13;16.52;;;7.50;99.90;;;;;;5133926;27;20086;-74
2022/01/14 11:54:07;;;;;;;21.75;16.20;;;7.50;99.90;;;;;;5135371;27;20456;-77
2022/01/14 11:56:33;;;;;;;23.08;16.73;;;7.50;99.90;;;;;;5134604;27;20043;-76
2022/01/14 11:59:17;;;;;;;15.98;12.50;;;7.50;99.90;;;;;;5135150;27;20492;-76
2022/01/14 12:01:47;;;;;;;18.85;12.82;;;7.50;99.90;;;;;;5134643;27;20411;-76
2022/01/14 12:04:13;;;;;;;16.02;13.18;;;7.50;99.90;;;;;;5134895;27;20108;-76
2022/01/14 12:06:50;;;;;;;16.45;12.95;;;7.40;99.90;;;;;;5133374;27;20043;-76
2022/01/14 12:09:24;;;;;;;16.42;13.20;;;7.40;99.90;;;;;;5135088;27;20047;-76
2022/01/14 12:12:28;;;;;;;17.77;11.98;;;7.40;99.90;;;;;;5134512;27;20099;-76
2022/01/14 12:15:03;;;;;;;17.25;13.00;;;7.40;99.90;;;;;;5134562;27;20043;-76
2022/01/14 12:17:35;;;;;;;14.75;12.45;;;7.40;99.90;;;;;;5135121;27;20054;-77
2022/01/14 12:20:15;;;;;;;18.95;11.75;;;7.40;99.90;;;;;;5134623;27;20122;-76
2022/01/14 12:22:43;;;;;;;14.98;11.80;;;7.40;99.90;;;;;;5134323;27;20050;-76
2022/01/14 12:25:09;;;;;;;15.23;12.25;;;7.40;99.90;;;;;;5134810;27;20493;-77
2022/01/14 12:27:43;;;;;;;16.73;11.85;;;7.50;99.90;;;;;;5134137;27;20051;-76
2022/01/14 12:30:15;;;;;;;16.85;11.95;;;7.50;99.90;;;;;;5134358;27;20047;-76
2022/01/14 12:32:42;;;;;;;19.88;12.68;;;7.50;99.90;;;;;;5134116;27;20047;-76
2022/01/14 12:35:12;;;;;;;15.75;11.32;;;7.40;99.90;;;;;;5134440;27;20483;-76
2022/01/14 12:37:43;;;;;;;16.17;12.13;;;7.40;99.90;;;;;;5134082;27;20047;-76
2022/01/14 12:40:14;;;;;;;15.25;11.48;;;7.50;99.90;;;;;;5134190;27;20123;-76
2022/01/14 12:42:53;;;;;;;18.25;11.93;;;7.50;99.90;;;;;;5134023;27;20042;-76
2022/01/14 12:45:35;;;;;;;16.30;11.95;;;7.50;99.90;;;;;;5133403;27;20062;-76
2022/01/14 12:48:39;;;;;;;16.92;10.90;;;7.50;99.90;;;;;;5134420;27;20035;-76
2022/01/14 12:51:14;;;;;;;15.57;11.32;;;7.50;99.90;;;;;;5133881;27;20047;-76
2022/01/14 12:54:09;;;;;;;13.82;10.85;;;7.50;99.90;;;;;;5133733;27;20053;-76
2022/01/14 12:56:37;;;;;;;14.32;9.90;;;7.50;99.90;;;;;;5132239;27;20051;-73
2022/01/14 12:59:13;;;;;;;18.67;11.50;;;7.50;99.90;;;;;;5134143;27;20047;-76